Trust77 — 9G-BD — position and weather

sailwx.info

Track history (hours):
 
Tides and Currents Weather Stations Pressure Air Temp Water Temp Dewpoint Dewpoint Depression Visibility Wind Speed Wind Dir Waves Ship Positions

Trust77

Last reported at 2017-Nov-17 14:54 UTC. Time now 2017-Nov-19 01:09 UTC.
Position N 05°20' W 000°23'.

Type: Fishing. MMSI: 627679000.

Date/timePositionNaut miles runAvg speedWind from/ knotsBaromVisibWave heightAir tempDewpointWater temp
2017-Nov-17 14:54N 05°20' W 000°23'4 8.4
2017-Nov-17 14:28N 05°23' W 000°24'12 0.5
2017-Nov-16 16:11N 05°24' W 000°13'1 8.3
2017-Nov-16 16:00N 05°24' W 000°11'4 8.1
2017-Nov-16 15:30N 05°27' W 000°08'4 8.0
2017-Nov-16 15:01N 05°29' W 000°05'4 8.2
2017-Nov-16 14:31N 05°32' W 000°02'4 7.3
2017-Nov-16 14:01N 05°35' E 000°00'3 6.8
2017-Nov-16 13:31N 05°38' E 000°01'0 0.9
2017-Nov-16 13:01N 05°38' E 000°01'0 0.0
2017-Nov-16 12:31N 05°38' E 000°01'0 0.0
2017-Nov-16 12:01N 05°38' E 000°01'0 0.0
2017-Nov-16 11:31N 05°38' E 000°01'0 0.0
2017-Nov-16 11:01N 05°38' E 000°01'0 0.0
2017-Nov-16 10:31N 05°38' E 000°01'0 0.0
2017-Nov-16 10:01N 05°38' E 000°01'0 0.0
2017-Nov-16 09:30N 05°38' E 000°01'0 0.0
2017-Nov-16 09:01N 05°38' E 000°01'0 0.0
2017-Nov-16 08:31N 05°38' E 000°01'0 0.0
2017-Nov-16 08:01N 05°38' E 000°01'0 0.0
2017-Nov-16 07:30N 05°38' E 000°01'0 0.0
2017-Nov-16 07:01N 05°38' E 000°01'0 0.0
2017-Nov-16 06:31N 05°38' E 000°01'0 0.0
2017-Nov-16 06:01N 05°38' E 000°01'0 0.0
2017-Nov-16 05:31N 05°38' E 000°01'0 0.0
2017-Nov-16 05:01N 05°38' E 000°01'0 0.0
2017-Nov-16 04:30N 05°38' E 000°01'0 0.0
2017-Nov-16 04:01N 05°38' E 000°01'0 0.0
2017-Nov-16 03:30N 05°38' E 000°01'0 0.0
2017-Nov-16 03:00N 05°38' E 000°01'0 0.0
2017-Nov-16 02:31N 05°38' E 000°01'0 0.0
2017-Nov-16 02:01N 05°38' E 000°01'0 0.0
2017-Nov-16 01:31N 05°38' E 000°01'0 0.0
2017-Nov-16 01:01N 05°38' E 000°01'0 0.0
2017-Nov-16 00:31N 05°38' E 000°01'0 0.0
2017-Nov-16 00:01N 05°38' E 000°01'0 0.0
2017-Nov-15 23:31N 05°38' E 000°01'0 0.0
2017-Nov-15 23:01N 05°38' E 000°01'0 0.0
2017-Nov-15 22:30N 05°38' E 000°01'0 0.0
2017-Nov-15 22:01N 05°38' E 000°01'0 0.0
2017-Nov-15 21:31N 05°38' E 000°01'0 0.0
2017-Nov-15 21:01N 05°38' E 000°01'0 0.0
2017-Nov-15 20:31N 05°38' E 000°01'0 0.0
2017-Nov-15 20:01N 05°38' E 000°01'0 0.0
2017-Nov-15 19:31N 05°38' E 000°01'0 0.0
2017-Nov-15 19:01N 05°38' E 000°01'0 0.0
2017-Nov-15 18:31N 05°38' E 000°01'0 0.0
2017-Nov-15 18:00N 05°38' E 000°01'0 0.0
2017-Nov-15 17:30N 05°38' E 000°01'0 0.0
2017-Nov-15 17:01N 05°38' E 000°01'0 0.0
2017-Nov-15 16:31N 05°38' E 000°01'0 0.0
2017-Nov-15 16:00N 05°38' E 000°01'0 0.0
2017-Nov-15 15:31N 05°38' E 000°01'0 0.0
2017-Nov-15 15:01N 05°38' E 000°01'0 0.0
2017-Nov-15 14:31N 05°38' E 000°01'0 0.0
2017-Nov-15 14:01N 05°38' E 000°01'0 0.0
2017-Nov-15 13:31N 05°38' E 000°01'0 0.0
2017-Nov-15 13:01N 05°38' E 000°01'0 0.0
2017-Nov-15 12:31N 05°38' E 000°01'0 0.0
2017-Nov-15 12:01N 05°38' E 000°01'0 0.0
2017-Nov-15 11:30N 05°38' E 000°01'0 0.0
2017-Nov-15 11:01N 05°38' E 000°01'0 0.0
2017-Nov-15 10:31N 05°38' E 000°01'0 0.0
2017-Nov-15 10:01N 05°38' E 000°01'0 0.0
2017-Nov-15 09:31N 05°38' E 000°01'0 0.0
2017-Nov-15 09:01N 05°38' E 000°01'0 0.0
2017-Nov-15 08:31N 05°38' E 000°01'0 0.0
2017-Nov-15 08:01N 05°38' E 000°01'0 0.0
2017-Nov-15 07:31N 05°38' E 000°01'0 0.0
2017-Nov-15 07:01N 05°38' E 000°01'0 0.0
2017-Nov-15 06:31N 05°38' E 000°01'0 0.0
2017-Nov-15 06:01N 05°38' E 000°01'0 0.0
2017-Nov-15 05:31N 05°38' E 000°01'0 0.0
2017-Nov-15 05:01N 05°38' E 000°01'0 0.0
2017-Nov-15 04:31N 05°38' E 000°01'0 0.0
2017-Nov-15 04:01N 05°38' E 000°01'0 0.0
2017-Nov-15 03:31N 05°38' E 000°01'0 0.0
2017-Nov-15 03:01N 05°38' E 000°01'0 0.0
2017-Nov-15 02:31N 05°38' E 000°01'0 0.0
2017-Nov-15 02:01N 05°38' E 000°01'0 0.0
2017-Nov-15 01:31N 05°38' E 000°01'0 0.0
2017-Nov-15 01:00N 05°38' E 000°01'0 0.0
2017-Nov-15 00:31N 05°38' E 000°01'0 0.0
2017-Nov-15 00:00N 05°38' E 000°01'0 0.0
2017-Nov-14 23:31N 05°38' E 000°01'0 0.0
2017-Nov-14 23:00N 05°38' E 000°01'0 0.0
2017-Nov-14 22:31N 05°38' E 000°01'0 0.0
2017-Nov-14 22:01N 05°38' E 000°01'0 0.0
2017-Nov-14 21:31N 05°38' E 000°01'0 0.0
2017-Nov-14 21:01N 05°38' E 000°01'0 0.0
2017-Nov-14 20:31N 05°38' E 000°01'0 0.0
2017-Nov-14 20:01N 05°38' E 000°01'0 0.0
2017-Nov-14 19:31N 05°38' E 000°01'0 0.0
2017-Nov-14 19:01N 05°38' E 000°01'0 0.0
2017-Nov-14 18:31N 05°38' E 000°01'0 0.0
2017-Nov-14 18:01N 05°38' E 000°01'0 0.0
2017-Nov-14 17:30N 05°38' E 000°01'0 0.0
2017-Nov-14 17:01N 05°38' E 000°01'0 0.0
2017-Nov-14 16:31N 05°38' E 000°01'0 0.0
2017-Nov-14 16:00N 05°38' E 000°01'0 0.0
2017-Nov-14 15:31N 05°38' E 000°01'0 0.0
2017-Nov-14 15:00N 05°38' E 000°01'0 0.0
2017-Nov-14 14:30N 05°38' E 000°01'0 0.0
2017-Nov-14 14:00N 05°38' E 000°01'0 0.0
2017-Nov-14 13:31N 05°38' E 000°01'0 0.0
2017-Nov-14 13:01N 05°38' E 000°01'0 0.0
2017-Nov-14 12:31N 05°38' E 000°01'0 0.0
2017-Nov-14 12:01N 05°38' E 000°01'0 0.0
2017-Nov-14 11:31N 05°38' E 000°01'0 0.0
2017-Nov-14 11:01N 05°38' E 000°01'0 0.0
2017-Nov-14 10:31N 05°38' E 000°01'0 0.0
2017-Nov-14 10:01N 05°38' E 000°01'0 0.0
2017-Nov-14 09:31N 05°38' E 000°01'0 0.0
2017-Nov-14 09:01N 05°38' E 000°01'0 0.0
2017-Nov-14 08:31N 05°38' E 000°01'0 0.0
2017-Nov-14 08:01N 05°38' E 000°01'0 0.0
2017-Nov-14 07:31N 05°38' E 000°01'0 0.0
2017-Nov-14 07:01N 05°38' E 000°01'0 0.0
2017-Nov-14 06:31N 05°38' E 000°01'0 0.0
2017-Nov-14 06:00N 05°38' E 000°01'0 0.0
2017-Nov-14 05:31N 05°38' E 000°01'0 0.0
2017-Nov-14 05:00N 05°38' E 000°01'0 0.0
2017-Nov-14 04:31N 05°38' E 000°01'0 0.0
2017-Nov-14 04:01N 05°38' E 000°01'0 0.0
2017-Nov-14 03:31N 05°38' E 000°01'0 0.0
2017-Nov-14 03:01N 05°38' E 000°01'0 0.0
2017-Nov-14 02:31N 05°38' E 000°01'0 0.0
2017-Nov-14 02:01N 05°38' E 000°01'0 0.0
2017-Nov-14 01:31N 05°38' E 000°01'0 0.0
2017-Nov-14 01:01N 05°38' E 000°01'0 0.0
2017-Nov-14 00:31N 05°38' E 000°01'0 0.0
2017-Nov-14 00:01N 05°38' E 000°01'0 0.0
2017-Nov-13 23:31N 05°38' E 000°01'0 0.0
2017-Nov-13 23:01N 05°38' E 000°01'0 0.0
2017-Nov-13 22:31N 05°38' E 000°01'0 0.0
2017-Nov-13 22:01N 05°38' E 000°01'0 0.0
2017-Nov-13 02:01N 05°38' E 000°01'0 0.0
2017-Nov-13 01:31N 05°38' E 000°01'0 0.0
2017-Nov-13 01:01N 05°38' E 000°01'0 0.0
2017-Nov-13 00:30N 05°38' E 000°01'0 0.0
2017-Nov-13 00:01N 05°38' E 000°01'0 0.0
2017-Nov-12 23:31N 05°38' E 000°01'0 0.0
2017-Nov-12 23:01N 05°38' E 000°01'0 0.0
2017-Nov-12 22:31N 05°38' E 000°01'0 0.0
2017-Nov-12 22:00N 05°38' E 000°01'0 0.0
2017-Nov-12 21:30N 05°38' E 000°01'0 0.0
2017-Nov-12 21:01N 05°38' E 000°01'0 0.0
2017-Nov-12 20:31N 05°38' E 000°01'0 0.0
2017-Nov-12 20:01N 05°38' E 000°01'0 0.0
2017-Nov-12 19:31N 05°38' E 000°01'0 0.0
2017-Nov-12 19:01N 05°38' E 000°01'0 0.0
2017-Nov-12 18:31N 05°38' E 000°01'0 0.0
2017-Nov-12 18:01N 05°38' E 000°01'0 0.0
2017-Nov-12 17:30N 05°38' E 000°01'0 0.0
2017-Nov-12 17:01N 05°38' E 000°01'0 0.0
2017-Nov-12 16:31N 05°38' E 000°01'0 0.0
2017-Nov-12 16:01N 05°38' E 000°01'0 0.0
2017-Nov-12 15:31N 05°38' E 000°01'0 0.0
2017-Nov-12 15:00N 05°38' E 000°01'0 0.0
2017-Nov-12 14:31N 05°38' E 000°01'0 0.0
2017-Nov-12 14:01N 05°38' E 000°01'0 0.0
2017-Nov-12 13:30N 05°38' E 000°01'0 0.0
2017-Nov-12 13:00N 05°38' E 000°01'0 0.0
2017-Nov-12 12:30N 05°38' E 000°01'0 0.0
2017-Nov-12 12:00N 05°38' E 000°01'0 0.0
2017-Nov-12 11:31N 05°38' E 000°01'0 0.0
2017-Nov-12 11:00N 05°38' E 000°01'0 0.0
2017-Nov-12 10:31N 05°38' E 000°01'0 0.0
2017-Nov-12 10:00N 05°38' E 000°01'0 0.0
2017-Nov-12 09:31N 05°38' E 000°01'0 0.0
2017-Nov-12 09:01N 05°38' E 000°01'0 0.0
2017-Nov-12 08:31N 05°38' E 000°01'0 0.0
2017-Nov-12 08:01N 05°38' E 000°01'0 0.0
2017-Nov-12 07:31N 05°38' E 000°01'0 0.0
2017-Nov-12 07:01N 05°38' E 000°01'0 0.0
2017-Nov-12 06:31N 05°38' E 000°01'0 0.0
2017-Nov-12 06:01N 05°38' E 000°01'0 0.0
2017-Nov-12 05:31N 05°38' E 000°01'0 0.0
2017-Nov-12 05:01N 05°38' E 000°01'0 0.0
2017-Nov-12 04:31N 05°38' E 000°01'0 0.0
2017-Nov-12 04:01N 05°38' E 000°01'0 0.0
2017-Nov-12 03:31N 05°38' E 000°01'0 0.0
2017-Nov-12 03:01N 05°38' E 000°01'0 0.0
2017-Nov-12 02:31N 05°38' E 000°01'0 0.0
2017-Nov-12 02:01N 05°38' E 000°01'0 0.0
2017-Nov-12 01:31N 05°38' E 000°01'0 0.0
2017-Nov-12 01:01N 05°38' E 000°01'0 0.0
2017-Nov-12 00:30N 05°38' E 000°01'0 0.0
2017-Nov-12 00:01N 05°38' E 000°01'0 0.0
2017-Nov-11 23:31N 05°38' E 000°01'0 0.0
2017-Nov-11 23:01N 05°38' E 000°01'0 0.0
2017-Nov-11 22:31N 05°38' E 000°01'0 0.0
2017-Nov-11 22:01N 05°38' E 000°01'0 0.0
2017-Nov-11 21:31N 05°38' E 000°01'0 0.0
2017-Nov-11 21:01N 05°38' E 000°01'0 0.0
2017-Nov-11 20:31N 05°38' E 000°01'0 0.0
2017-Nov-11 20:01N 05°38' E 000°01'0 0.0
2017-Nov-11 19:30N 05°38' E 000°01'0 0.0
2017-Nov-11 19:01N 05°38' E 000°01'0 0.0
2017-Nov-11 18:31N 05°38' E 000°01'0 0.0
2017-Nov-11 18:01N 05°38' E 000°01'0 0.0
2017-Nov-11 17:31N 05°38' E 000°01'0 0.0
2017-Nov-11 17:01N 05°38' E 000°01'0 0.0
2017-Nov-11 16:31N 05°38' E 000°01'0 0.0
2017-Nov-11 16:00N 05°38' E 000°01'0 0.0
2017-Nov-11 15:31N 05°38' E 000°01'0 0.0
2017-Nov-11 15:00N 05°38' E 000°01'0 0.0
2017-Nov-11 14:31N 05°38' E 000°01'0 0.0
2017-Nov-11 14:01N 05°38' E 000°01'0 0.0
2017-Nov-11 13:30N 05°38' E 000°01'0 0.0
2017-Nov-11 13:00N 05°38' E 000°01'0 0.0
2017-Nov-11 12:31N 05°38' E 000°01'0 0.0
2017-Nov-11 12:01N 05°38' E 000°01'0 0.0
2017-Nov-11 11:31N 05°38' E 000°01'0 0.0
2017-Nov-11 11:01N 05°38' E 000°01'0 0.0
2017-Nov-11 10:31N 05°38' E 000°01'0 0.0
2017-Nov-11 10:01N 05°38' E 000°01'0 0.0
2017-Nov-11 09:30N 05°38' E 000°01'0 0.0
2017-Nov-11 09:00N 05°38' E 000°01'0 0.0
2017-Nov-11 08:31N 05°38' E 000°01'0 0.0
2017-Nov-11 08:01N 05°38' E 000°01'0 0.0
2017-Nov-11 07:31N 05°38' E 000°01'0 0.0
2017-Nov-11 07:01N 05°38' E 000°01'0 0.0
2017-Nov-11 06:31N 05°38' E 000°01'0 0.0
2017-Nov-11 06:00N 05°38' E 000°01'0 0.0
2017-Nov-11 05:31N 05°38' E 000°01'0 0.0
2017-Nov-11 05:01N 05°38' E 000°01'0 0.0
2017-Nov-11 04:30N 05°38' E 000°01'0 0.0
2017-Nov-11 04:01N 05°38' E 000°01'0 0.0
2017-Nov-11 03:31N 05°38' E 000°01'0 0.0
2017-Nov-11 03:01N 05°38' E 000°01'0 0.0
2017-Nov-11 02:30N 05°38' E 000°01'0 0.0
2017-Nov-11 02:01N 05°38' E 000°01'0 0.0
2017-Nov-11 01:31N 05°38' E 000°01'0 0.0
2017-Nov-11 01:01N 05°38' E 000°01'0 0.0
2017-Nov-11 00:31N 05°38' E 000°01'0 0.0
2017-Nov-11 00:00N 05°38' E 000°01'0 0.0
2017-Nov-10 23:31N 05°38' E 000°01'0 0.0
2017-Nov-10 23:00N 05°38' E 000°01'0 0.0
2017-Nov-10 22:31N 05°38' E 000°01'0 0.0
2017-Nov-10 22:00N 05°38' E 000°01'0 0.0
2017-Nov-10 21:30N 05°38' E 000°01'0 0.0
2017-Nov-10 21:00N 05°38' E 000°01'0 0.0
2017-Nov-10 20:30N 05°38' E 000°01'0 0.0
2017-Nov-10 20:01N 05°38' E 000°01'0 0.0
2017-Nov-10 19:31N 05°38' E 000°01'0 0.0
2017-Nov-10 19:01N 05°38' E 000°01'0 0.0
2017-Nov-10 18:30N 05°38' E 000°01'0 0.0
2017-Nov-10 18:01N 05°38' E 000°01'0 0.0
2017-Nov-10 17:31N 05°38' E 000°01'0 0.0
2017-Nov-10 17:01N 05°38' E 000°01'0 0.0
2017-Nov-10 16:31N 05°38' E 000°01'0 0.0
2017-Nov-10 16:01N 05°38' E 000°01'0 0.0
2017-Nov-10 15:31N 05°38' E 000°01'0 0.0
2017-Nov-10 15:01N 05°38' E 000°01'0 0.0
2017-Nov-10 14:31N 05°38' E 000°01'0 0.0
2017-Nov-10 14:01N 05°38' E 000°01'0 0.0
2017-Nov-10 13:31N 05°38' E 000°01'0 0.0
2017-Nov-10 13:01N 05°38' E 000°01'0 0.0
2017-Nov-10 12:31N 05°38' E 000°01'0 0.0
2017-Nov-10 12:01N 05°38' E 000°01'0 0.0
2017-Nov-10 11:31N 05°38' E 000°01'0 0.0
2017-Nov-10 11:01N 05°38' E 000°01'0 0.0
2017-Nov-10 10:31N 05°38' E 000°01'0 0.0
2017-Nov-10 10:00N 05°38' E 000°01'0 0.0
2017-Nov-10 09:30N 05°38' E 000°01'2 0.2
2017-Nov-09 23:00N 05°37' E 000°02'0 0.0
2017-Nov-09 22:30N 05°37' E 000°02'0 0.0
2017-Nov-09 22:00N 05°37' E 000°02'0 0.0
2017-Nov-09 21:30N 05°37' E 000°02'0 0.0
2017-Nov-09 21:00N 05°37' E 000°02'0 0.0
2017-Nov-09 20:30N 05°37' E 000°02'0 0.0
2017-Nov-09 20:00N 05°37' E 000°02'0 0.0
2017-Nov-09 19:30N 05°37' E 000°02'0 0.0
2017-Nov-09 19:00N 05°37' E 000°02'0 0.0
2017-Nov-09 18:30N 05°37' E 000°02'0 0.0
2017-Nov-09 18:00N 05°37' E 000°02'0 0.0
2017-Nov-09 17:30N 05°37' E 000°02'0 0.0
2017-Nov-09 17:00N 05°37' E 000°02'0 0.6
2017-Nov-09 16:30N 05°37' E 000°02'5 9.5
2017-Nov-09 16:00N 05°33' W 000°01'5 9.4
2017-Nov-09 15:30N 05°29' W 000°03'5 9.3
2017-Nov-09 15:00N 05°25' W 000°06'  
Track history (hours):
 
Tides and Currents Weather Stations Pressure Air Temp Water Temp Dewpoint Dewpoint Depression Visibility Wind Speed Wind Dir Waves Ship Positions

Trust77

Last reported at 2017-Nov-17 14:54 UTC. Time now 2017-Nov-19 01:09 UTC.
Position N 05°20' W 000°23'.

Type: Fishing. MMSI: 627679000.

Date/timePositionNaut miles runAvg speedWind from/ knotsBaromVisibWave heightAir tempDewpointWater temp
2017-Nov-17 14:54N 05°20' W 000°23'4 8.4
2017-Nov-17 14:28N 05°23' W 000°24'12 0.5
2017-Nov-16 16:11N 05°24' W 000°13'1 8.3
2017-Nov-16 16:00N 05°24' W 000°11'4 8.1
2017-Nov-16 15:30N 05°27' W 000°08'4 8.0
2017-Nov-16 15:01N 05°29' W 000°05'4 8.2
2017-Nov-16 14:31N 05°32' W 000°02'4 7.3
2017-Nov-16 14:01N 05°35' E 000°00'3 6.8
2017-Nov-16 13:31N 05°38' E 000°01'0 0.9
2017-Nov-16 13:01N 05°38' E 000°01'0 0.0
2017-Nov-16 12:31N 05°38' E 000°01'0 0.0
2017-Nov-16 12:01N 05°38' E 000°01'0 0.0
2017-Nov-16 11:31N 05°38' E 000°01'0 0.0
2017-Nov-16 11:01N 05°38' E 000°01'0 0.0
2017-Nov-16 10:31N 05°38' E 000°01'0 0.0
2017-Nov-16 10:01N 05°38' E 000°01'0 0.0
2017-Nov-16 09:30N 05°38' E 000°01'0 0.0
2017-Nov-16 09:01N 05°38' E 000°01'0 0.0
2017-Nov-16 08:31N 05°38' E 000°01'0 0.0
2017-Nov-16 08:01N 05°38' E 000°01'0 0.0
2017-Nov-16 07:30N 05°38' E 000°01'0 0.0
2017-Nov-16 07:01N 05°38' E 000°01'0 0.0
2017-Nov-16 06:31N 05°38' E 000°01'0 0.0
2017-Nov-16 06:01N 05°38' E 000°01'0 0.0
2017-Nov-16 05:31N 05°38' E 000°01'0 0.0
2017-Nov-16 05:01N 05°38' E 000°01'0 0.0
2017-Nov-16 04:30N 05°38' E 000°01'0 0.0
2017-Nov-16 04:01N 05°38' E 000°01'0 0.0
2017-Nov-16 03:30N 05°38' E 000°01'0 0.0
2017-Nov-16 03:00N 05°38' E 000°01'0 0.0
2017-Nov-16 02:31N 05°38' E 000°01'0 0.0
2017-Nov-16 02:01N 05°38' E 000°01'0 0.0
2017-Nov-16 01:31N 05°38' E 000°01'0 0.0
2017-Nov-16 01:01N 05°38' E 000°01'0 0.0
2017-Nov-16 00:31N 05°38' E 000°01'0 0.0
2017-Nov-16 00:01N 05°38' E 000°01'0 0.0
2017-Nov-15 23:31N 05°38' E 000°01'0 0.0
2017-Nov-15 23:01N 05°38' E 000°01'0 0.0
2017-Nov-15 22:30N 05°38' E 000°01'0 0.0
2017-Nov-15 22:01N 05°38' E 000°01'0 0.0
2017-Nov-15 21:31N 05°38' E 000°01'0 0.0
2017-Nov-15 21:01N 05°38' E 000°01'0 0.0
2017-Nov-15 20:31N 05°38' E 000°01'0 0.0
2017-Nov-15 20:01N 05°38' E 000°01'0 0.0
2017-Nov-15 19:31N 05°38' E 000°01'0 0.0
2017-Nov-15 19:01N 05°38' E 000°01'0 0.0
2017-Nov-15 18:31N 05°38' E 000°01'0 0.0
2017-Nov-15 18:00N 05°38' E 000°01'0 0.0
2017-Nov-15 17:30N 05°38' E 000°01'0 0.0
2017-Nov-15 17:01N 05°38' E 000°01'0 0.0
2017-Nov-15 16:31N 05°38' E 000°01'0 0.0
2017-Nov-15 16:00N 05°38' E 000°01'0 0.0
2017-Nov-15 15:31N 05°38' E 000°01'0 0.0
2017-Nov-15 15:01N 05°38' E 000°01'0 0.0
2017-Nov-15 14:31N 05°38' E 000°01'0 0.0
2017-Nov-15 14:01N 05°38' E 000°01'0 0.0
2017-Nov-15 13:31N 05°38' E 000°01'0 0.0
2017-Nov-15 13:01N 05°38' E 000°01'0 0.0
2017-Nov-15 12:31N 05°38' E 000°01'0 0.0
2017-Nov-15 12:01N 05°38' E 000°01'0 0.0
2017-Nov-15 11:30N 05°38' E 000°01'0 0.0
2017-Nov-15 11:01N 05°38' E 000°01'0 0.0
2017-Nov-15 10:31N 05°38' E 000°01'0 0.0
2017-Nov-15 10:01N 05°38' E 000°01'0 0.0
2017-Nov-15 09:31N 05°38' E 000°01'0 0.0
2017-Nov-15 09:01N 05°38' E 000°01'0 0.0
2017-Nov-15 08:31N 05°38' E 000°01'0 0.0
2017-Nov-15 08:01N 05°38' E 000°01'0 0.0
2017-Nov-15 07:31N 05°38' E 000°01'0 0.0
2017-Nov-15 07:01N 05°38' E 000°01'0 0.0
2017-Nov-15 06:31N 05°38' E 000°01'0 0.0
2017-Nov-15 06:01N 05°38' E 000°01'0 0.0
2017-Nov-15 05:31N 05°38' E 000°01'0 0.0
2017-Nov-15 05:01N 05°38' E 000°01'0 0.0
2017-Nov-15 04:31N 05°38' E 000°01'0 0.0
2017-Nov-15 04:01N 05°38' E 000°01'0 0.0
2017-Nov-15 03:31N 05°38' E 000°01'0 0.0
2017-Nov-15 03:01N 05°38' E 000°01'0 0.0
2017-Nov-15 02:31N 05°38' E 000°01'0 0.0
2017-Nov-15 02:01N 05°38' E 000°01'0 0.0
2017-Nov-15 01:31N 05°38' E 000°01'0 0.0
2017-Nov-15 01:00N 05°38' E 000°01'0 0.0
2017-Nov-15 00:31N 05°38' E 000°01'0 0.0
2017-Nov-15 00:00N 05°38' E 000°01'0 0.0
2017-Nov-14 23:31N 05°38' E 000°01'0 0.0
2017-Nov-14 23:00N 05°38' E 000°01'0 0.0
2017-Nov-14 22:31N 05°38' E 000°01'0 0.0
2017-Nov-14 22:01N 05°38' E 000°01'0 0.0
2017-Nov-14 21:31N 05°38' E 000°01'0 0.0
2017-Nov-14 21:01N 05°38' E 000°01'0 0.0
2017-Nov-14 20:31N 05°38' E 000°01'0 0.0
2017-Nov-14 20:01N 05°38' E 000°01'0 0.0
2017-Nov-14 19:31N 05°38' E 000°01'0 0.0
2017-Nov-14 19:01N 05°38' E 000°01'0 0.0
2017-Nov-14 18:31N 05°38' E 000°01'0 0.0
2017-Nov-14 18:01N 05°38' E 000°01'0 0.0
2017-Nov-14 17:30N 05°38' E 000°01'0 0.0
2017-Nov-14 17:01N 05°38' E 000°01'0 0.0
2017-Nov-14 16:31N 05°38' E 000°01'0 0.0
2017-Nov-14 16:00N 05°38' E 000°01'0 0.0
2017-Nov-14 15:31N 05°38' E 000°01'0 0.0
2017-Nov-14 15:00N 05°38' E 000°01'0 0.0
2017-Nov-14 14:30N 05°38' E 000°01'0 0.0
2017-Nov-14 14:00N 05°38' E 000°01'0 0.0
2017-Nov-14 13:31N 05°38' E 000°01'0 0.0
2017-Nov-14 13:01N 05°38' E 000°01'0 0.0
2017-Nov-14 12:31N 05°38' E 000°01'0 0.0
2017-Nov-14 12:01N 05°38' E 000°01'0 0.0
2017-Nov-14 11:31N 05°38' E 000°01'0 0.0
2017-Nov-14 11:01N 05°38' E 000°01'0 0.0
2017-Nov-14 10:31N 05°38' E 000°01'0 0.0
2017-Nov-14 10:01N 05°38' E 000°01'0 0.0
2017-Nov-14 09:31N 05°38' E 000°01'0 0.0
2017-Nov-14 09:01N 05°38' E 000°01'0 0.0
2017-Nov-14 08:31N 05°38' E 000°01'0 0.0
2017-Nov-14 08:01N 05°38' E 000°01'0 0.0
2017-Nov-14 07:31N 05°38' E 000°01'0 0.0
2017-Nov-14 07:01N 05°38' E 000°01'0 0.0
2017-Nov-14 06:31N 05°38' E 000°01'0 0.0
2017-Nov-14 06:00N 05°38' E 000°01'0 0.0
2017-Nov-14 05:31N 05°38' E 000°01'0 0.0
2017-Nov-14 05:00N 05°38' E 000°01'0 0.0
2017-Nov-14 04:31N 05°38' E 000°01'0 0.0
2017-Nov-14 04:01N 05°38' E 000°01'0 0.0
2017-Nov-14 03:31N 05°38' E 000°01'0 0.0
2017-Nov-14 03:01N 05°38' E 000°01'0 0.0
2017-Nov-14 02:31N 05°38' E 000°01'0 0.0
2017-Nov-14 02:01N 05°38' E 000°01'0 0.0
2017-Nov-14 01:31N 05°38' E 000°01'0 0.0
2017-Nov-14 01:01N 05°38' E 000°01'0 0.0
2017-Nov-14 00:31N 05°38' E 000°01'0 0.0
2017-Nov-14 00:01N 05°38' E 000°01'0 0.0
2017-Nov-13 23:31N 05°38' E 000°01'0 0.0
2017-Nov-13 23:01N 05°38' E 000°01'0 0.0
2017-Nov-13 22:31N 05°38' E 000°01'0 0.0
2017-Nov-13 22:01N 05°38' E 000°01'0 0.0
2017-Nov-13 02:01N 05°38' E 000°01'0 0.0
2017-Nov-13 01:31N 05°38' E 000°01'0 0.0
2017-Nov-13 01:01N 05°38' E 000°01'0 0.0
2017-Nov-13 00:30N 05°38' E 000°01'0 0.0
2017-Nov-13 00:01N 05°38' E 000°01'0 0.0
2017-Nov-12 23:31N 05°38' E 000°01'0 0.0
2017-Nov-12 23:01N 05°38' E 000°01'0 0.0
2017-Nov-12 22:31N 05°38' E 000°01'0 0.0
2017-Nov-12 22:00N 05°38' E 000°01'0 0.0
2017-Nov-12 21:30N 05°38' E 000°01'0 0.0
2017-Nov-12 21:01N 05°38' E 000°01'0 0.0
2017-Nov-12 20:31N 05°38' E 000°01'0 0.0
2017-Nov-12 20:01N 05°38' E 000°01'0 0.0
2017-Nov-12 19:31N 05°38' E 000°01'0 0.0
2017-Nov-12 19:01N 05°38' E 000°01'0 0.0
2017-Nov-12 18:31N 05°38' E 000°01'0 0.0
2017-Nov-12 18:01N 05°38' E 000°01'0 0.0
2017-Nov-12 17:30N 05°38' E 000°01'0 0.0
2017-Nov-12 17:01N 05°38' E 000°01'0 0.0
2017-Nov-12 16:31N 05°38' E 000°01'0 0.0
2017-Nov-12 16:01N 05°38' E 000°01'0 0.0
2017-Nov-12 15:31N 05°38' E 000°01'0 0.0
2017-Nov-12 15:00N 05°38' E 000°01'0 0.0
2017-Nov-12 14:31N 05°38' E 000°01'0 0.0
2017-Nov-12 14:01N 05°38' E 000°01'0 0.0
2017-Nov-12 13:30N 05°38' E 000°01'0 0.0
2017-Nov-12 13:00N 05°38' E 000°01'0 0.0
2017-Nov-12 12:30N 05°38' E 000°01'0 0.0
2017-Nov-12 12:00N 05°38' E 000°01'0 0.0
2017-Nov-12 11:31N 05°38' E 000°01'0 0.0
2017-Nov-12 11:00N 05°38' E 000°01'0 0.0
2017-Nov-12 10:31N 05°38' E 000°01'0 0.0
2017-Nov-12 10:00N 05°38' E 000°01'0 0.0
2017-Nov-12 09:31N 05°38' E 000°01'0 0.0
2017-Nov-12 09:01N 05°38' E 000°01'0 0.0
2017-Nov-12 08:31N 05°38' E 000°01'0 0.0
2017-Nov-12 08:01N 05°38' E 000°01'0 0.0
2017-Nov-12 07:31N 05°38' E 000°01'0 0.0
2017-Nov-12 07:01N 05°38' E 000°01'0 0.0
2017-Nov-12 06:31N 05°38' E 000°01'0 0.0
2017-Nov-12 06:01N 05°38' E 000°01'0 0.0
2017-Nov-12 05:31N 05°38' E 000°01'0 0.0
2017-Nov-12 05:01N 05°38' E 000°01'0 0.0
2017-Nov-12 04:31N 05°38' E 000°01'0 0.0
2017-Nov-12 04:01N 05°38' E 000°01'0 0.0
2017-Nov-12 03:31N 05°38' E 000°01'0 0.0
2017-Nov-12 03:01N 05°38' E 000°01'0 0.0
2017-Nov-12 02:31N 05°38' E 000°01'0 0.0
2017-Nov-12 02:01N 05°38' E 000°01'0 0.0
2017-Nov-12 01:31N 05°38' E 000°01'0 0.0
2017-Nov-12 01:01N 05°38' E 000°01'0 0.0
2017-Nov-12 00:30N 05°38' E 000°01'0 0.0
2017-Nov-12 00:01N 05°38' E 000°01'0 0.0
2017-Nov-11 23:31N 05°38' E 000°01'0 0.0
2017-Nov-11 23:01N 05°38' E 000°01'0 0.0
2017-Nov-11 22:31N 05°38' E 000°01'0 0.0
2017-Nov-11 22:01N 05°38' E 000°01'0 0.0
2017-Nov-11 21:31N 05°38' E 000°01'0 0.0
2017-Nov-11 21:01N 05°38' E 000°01'0 0.0
2017-Nov-11 20:31N 05°38' E 000°01'0 0.0
2017-Nov-11 20:01N 05°38' E 000°01'0 0.0
2017-Nov-11 19:30N 05°38' E 000°01'0 0.0
2017-Nov-11 19:01N 05°38' E 000°01'0 0.0
2017-Nov-11 18:31N 05°38' E 000°01'0 0.0
2017-Nov-11 18:01N 05°38' E 000°01'0 0.0
2017-Nov-11 17:31N 05°38' E 000°01'0 0.0
2017-Nov-11 17:01N 05°38' E 000°01'0 0.0
2017-Nov-11 16:31N 05°38' E 000°01'0 0.0
2017-Nov-11 16:00N 05°38' E 000°01'0 0.0
2017-Nov-11 15:31N 05°38' E 000°01'0 0.0
2017-Nov-11 15:00N 05°38' E 000°01'0 0.0
2017-Nov-11 14:31N 05°38' E 000°01'0 0.0
2017-Nov-11 14:01N 05°38' E 000°01'0 0.0
2017-Nov-11 13:30N 05°38' E 000°01'0 0.0
2017-Nov-11 13:00N 05°38' E 000°01'0 0.0
2017-Nov-11 12:31N 05°38' E 000°01'0 0.0
2017-Nov-11 12:01N 05°38' E 000°01'0 0.0
2017-Nov-11 11:31N 05°38' E 000°01'0 0.0
2017-Nov-11 11:01N 05°38' E 000°01'0 0.0
2017-Nov-11 10:31N 05°38' E 000°01'0 0.0
2017-Nov-11 10:01N 05°38' E 000°01'0 0.0
2017-Nov-11 09:30N 05°38' E 000°01'0 0.0
2017-Nov-11 09:00N 05°38' E 000°01'0 0.0
2017-Nov-11 08:31N 05°38' E 000°01'0 0.0
2017-Nov-11 08:01N 05°38' E 000°01'0 0.0
2017-Nov-11 07:31N 05°38' E 000°01'0 0.0
2017-Nov-11 07:01N 05°38' E 000°01'0 0.0
2017-Nov-11 06:31N 05°38' E 000°01'0 0.0
2017-Nov-11 06:00N 05°38' E 000°01'0 0.0
2017-Nov-11 05:31N 05°38' E 000°01'0 0.0
2017-Nov-11 05:01N 05°38' E 000°01'0 0.0
2017-Nov-11 04:30N 05°38' E 000°01'0 0.0
2017-Nov-11 04:01N 05°38' E 000°01'0 0.0
2017-Nov-11 03:31N 05°38' E 000°01'0 0.0
2017-Nov-11 03:01N 05°38' E 000°01'0 0.0
2017-Nov-11 02:30N 05°38' E 000°01'0 0.0
2017-Nov-11 02:01N 05°38' E 000°01'0 0.0
2017-Nov-11 01:31N 05°38' E 000°01'0 0.0
2017-Nov-11 01:01N 05°38' E 000°01'0 0.0
2017-Nov-11 00:31N 05°38' E 000°01'0 0.0
2017-Nov-11 00:00N 05°38' E 000°01'0 0.0
2017-Nov-10 23:31N 05°38' E 000°01'0 0.0
2017-Nov-10 23:00N 05°38' E 000°01'0 0.0
2017-Nov-10 22:31N 05°38' E 000°01'0 0.0
2017-Nov-10 22:00N 05°38' E 000°01'0 0.0
2017-Nov-10 21:30N 05°38' E 000°01'0 0.0
2017-Nov-10 21:00N 05°38' E 000°01'0 0.0
2017-Nov-10 20:30N 05°38' E 000°01'0 0.0
2017-Nov-10 20:01N 05°38' E 000°01'0 0.0
2017-Nov-10 19:31N 05°38' E 000°01'0 0.0
2017-Nov-10 19:01N 05°38' E 000°01'0 0.0
2017-Nov-10 18:30N 05°38' E 000°01'0 0.0
2017-Nov-10 18:01N 05°38' E 000°01'0 0.0
2017-Nov-10 17:31N 05°38' E 000°01'0 0.0
2017-Nov-10 17:01N 05°38' E 000°01'0 0.0
2017-Nov-10 16:31N 05°38' E 000°01'0 0.0
2017-Nov-10 16:01N 05°38' E 000°01'0 0.0
2017-Nov-10 15:31N 05°38' E 000°01'0 0.0
2017-Nov-10 15:01N 05°38' E 000°01'0 0.0
2017-Nov-10 14:31N 05°38' E 000°01'0 0.0
2017-Nov-10 14:01N 05°38' E 000°01'0 0.0
2017-Nov-10 13:31N 05°38' E 000°01'0 0.0
2017-Nov-10 13:01N 05°38' E 000°01'0 0.0
2017-Nov-10 12:31N 05°38' E 000°01'0 0.0
2017-Nov-10 12:01N 05°38' E 000°01'0 0.0
2017-Nov-10 11:31N 05°38' E 000°01'0 0.0
2017-Nov-10 11:01N 05°38' E 000°01'0 0.0
2017-Nov-10 10:31N 05°38' E 000°01'0 0.0
2017-Nov-10 10:00N 05°38' E 000°01'0 0.0
2017-Nov-10 09:30N 05°38' E 000°01'2 0.2
2017-Nov-09 23:00N 05°37' E 000°02'0 0.0
2017-Nov-09 22:30N 05°37' E 000°02'0 0.0
2017-Nov-09 22:00N 05°37' E 000°02'0 0.0
2017-Nov-09 21:30N 05°37' E 000°02'0 0.0
2017-Nov-09 21:00N 05°37' E 000°02'0 0.0
2017-Nov-09 20:30N 05°37' E 000°02'0 0.0
2017-Nov-09 20:00N 05°37' E 000°02'0 0.0
2017-Nov-09 19:30N 05°37' E 000°02'0 0.0
2017-Nov-09 19:00N 05°37' E 000°02'0 0.0
2017-Nov-09 18:30N 05°37' E 000°02'0 0.0
2017-Nov-09 18:00N 05°37' E 000°02'0 0.0
2017-Nov-09 17:30N 05°37' E 000°02'0 0.0
2017-Nov-09 17:00N 05°37' E 000°02'0 0.6
2017-Nov-09 16:30N 05°37' E 000°02'5 9.5
2017-Nov-09 16:00N 05°33' W 000°01'5 9.4
2017-Nov-09 15:30N 05°29' W 000°03'5 9.3
2017-Nov-09 15:00N 05°25' W 000°06'  

Dump ship's entire track history